sensor_id;sensor_type;location;lat;lon;timestamp;P1;durP1;ratioP1;P2;durP2;ratioP2
70733;SDS011;58320;48.804;9.252;2022-10-14T00:00:38;16.65;;;9.57;;
70733;SDS011;58320;48.804;9.252;2022-10-14T00:03:04;14.30;;;8.55;;
70733;SDS011;58320;48.804;9.252;2022-10-14T00:05:30;15.15;;;9.38;;
70733;SDS011;58320;48.804;9.252;2022-10-14T00:07:57;18.67;;;9.70;;
70733;SDS011;58320;48.804;9.252;2022-10-14T00:10:22;17.52;;;9.55;;
70733;SDS011;58320;48.804;9.252;2022-10-14T00:12:48;16.08;;;9.52;;
70733;SDS011;58320;48.804;9.252;2022-10-14T00:15:15;20.05;;;9.45;;
70733;SDS011;58320;48.804;9.252;2022-10-14T00:17:41;14.73;;;8.30;;
70733;SDS011;58320;48.804;9.252;2022-10-14T00:20:07;12.32;;;7.28;;
70733;SDS011;58320;48.804;9.252;2022-10-14T00:22:33;15.68;;;8.45;;
70733;SDS011;58320;48.804;9.252;2022-10-14T00:24:59;14.68;;;8.80;;
70733;SDS011;58320;48.804;9.252;2022-10-14T00:27:25;14.67;;;8.20;;
70733;SDS011;58320;48.804;9.252;2022-10-14T00:29:51;18.33;;;9.77;;
70733;SDS011;58320;48.804;9.252;2022-10-14T00:32:17;17.58;;;9.65;;
70733;SDS011;58320;48.804;9.252;2022-10-14T00:34:42;17.50;;;9.80;;
70733;SDS011;58320;48.804;9.252;2022-10-14T00:37:08;17.08;;;9.45;;
70733;SDS011;58320;48.804;9.252;2022-10-14T00:39:34;16.25;;;9.02;;
70733;SDS011;58320;48.804;9.252;2022-10-14T00:42:00;13.97;;;8.43;;
70733;SDS011;58320;48.804;9.252;2022-10-14T00:46:52;11.77;;;7.82;;
70733;SDS011;58320;48.804;9.252;2022-10-14T00:51:53;12.27;;;7.55;;
70733;SDS011;58320;48.804;9.252;2022-10-14T00:54:24;11.48;;;7.47;;
70733;SDS011;58320;48.804;9.252;2022-10-14T00:57:00;13.07;;;8.48;;
70733;SDS011;58320;48.804;9.252;2022-10-14T00:59:26;13.30;;;7.90;;
70733;SDS011;58320;48.804;9.252;2022-10-14T01:01:52;12.83;;;8.17;;
70733;SDS011;58320;48.804;9.252;2022-10-14T01:04:18;13.90;;;8.77;;
70733;SDS011;58320;48.804;9.252;2022-10-14T01:09:28;14.80;;;9.70;;
70733;SDS011;58320;48.804;9.252;2022-10-14T01:17:41;15.00;;;10.02;;
70733;SDS011;58320;48.804;9.252;2022-10-14T01:32:28;13.95;;;7.60;;
70733;SDS011;58320;48.804;9.252;2022-10-14T01:41:52;10.98;;;6.18;;
70733;SDS011;58320;48.804;9.252;2022-10-14T01:44:32;11.10;;;6.82;;
70733;SDS011;58320;48.804;9.252;2022-10-14T01:47:02;13.93;;;7.10;;
70733;SDS011;58320;48.804;9.252;2022-10-14T01:49:31;9.27;;;6.15;;
70733;SDS011;58320;48.804;9.252;2022-10-14T01:52:06;12.17;;;6.17;;
70733;SDS011;58320;48.804;9.252;2022-10-14T01:54:38;11.15;;;7.47;;
70733;SDS011;58320;48.804;9.252;2022-10-14T01:57:08;12.20;;;6.97;;
70733;SDS011;58320;48.804;9.252;2022-10-14T01:59:41;14.73;;;6.95;;
70733;SDS011;58320;48.804;9.252;2022-10-14T02:02:10;13.93;;;7.82;;
70733;SDS011;58320;48.804;9.252;2022-10-14T02:04:37;14.50;;;7.83;;
70733;SDS011;58320;48.804;9.252;2022-10-14T02:07:05;15.45;;;8.98;;
70733;SDS011;58320;48.804;9.252;2022-10-14T02:17:59;13.90;;;8.87;;
70733;SDS011;58320;48.804;9.252;2022-10-14T02:21:06;16.35;;;8.63;;
70733;SDS011;58320;48.804;9.252;2022-10-14T02:24:04;15.95;;;8.63;;
70733;SDS011;58320;48.804;9.252;2022-10-14T02:26:53;15.48;;;8.57;;
70733;SDS011;58320;48.804;9.252;2022-10-14T02:29:22;14.85;;;9.70;;
70733;SDS011;58320;48.804;9.252;2022-10-14T02:31:50;15.63;;;9.13;;
70733;SDS011;58320;48.804;9.252;2022-10-14T02:34:18;15.35;;;7.75;;
70733;SDS011;58320;48.804;9.252;2022-10-14T02:36:47;14.60;;;7.72;;
70733;SDS011;58320;48.804;9.252;2022-10-14T02:39:16;12.85;;;7.63;;
70733;SDS011;58320;48.804;9.252;2022-10-14T02:41:48;13.27;;;7.45;;
70733;SDS011;58320;48.804;9.252;2022-10-14T02:44:14;12.37;;;6.17;;
70733;SDS011;58320;48.804;9.252;2022-10-14T02:46:40;13.93;;;7.15;;
70733;SDS011;58320;48.804;9.252;2022-10-14T02:49:07;11.23;;;7.40;;
70733;SDS011;58320;48.804;9.252;2022-10-14T02:51:33;10.73;;;6.53;;
70733;SDS011;58320;48.804;9.252;2022-10-14T02:53:58;10.55;;;6.07;;
70733;SDS011;58320;48.804;9.252;2022-10-14T02:56:26;10.07;;;6.28;;
70733;SDS011;58320;48.804;9.252;2022-10-14T02:58:52;11.13;;;6.73;;
70733;SDS011;58320;48.804;9.252;2022-10-14T03:01:17;11.63;;;5.82;;
70733;SDS011;58320;48.804;9.252;2022-10-14T03:03:43;11.05;;;5.68;;
70733;SDS011;58320;48.804;9.252;2022-10-14T03:06:09;10.33;;;5.87;;
70733;SDS011;58320;48.804;9.252;2022-10-14T03:08:35;11.55;;;5.53;;
70733;SDS011;58320;48.804;9.252;2022-10-14T03:11:01;12.32;;;5.93;;
70733;SDS011;58320;48.804;9.252;2022-10-14T03:13:26;8.90;;;4.63;;
70733;SDS011;58320;48.804;9.252;2022-10-14T03:15:52;9.73;;;4.80;;
70733;SDS011;58320;48.804;9.252;2022-10-14T03:18:18;9.30;;;5.33;;
70733;SDS011;58320;48.804;9.252;2022-10-14T03:20:44;8.07;;;4.80;;
70733;SDS011;58320;48.804;9.252;2022-10-14T03:23:11;10.20;;;5.22;;
70733;SDS011;58320;48.804;9.252;2022-10-14T03:25:38;13.25;;;5.93;;
70733;SDS011;58320;48.804;9.252;2022-10-14T03:28:04;9.45;;;5.38;;
70733;SDS011;58320;48.804;9.252;2022-10-14T03:30:30;10.17;;;5.23;;
70733;SDS011;58320;48.804;9.252;2022-10-14T03:32:56;10.20;;;5.47;;
70733;SDS011;58320;48.804;9.252;2022-10-14T03:35:22;11.55;;;5.38;;
70733;SDS011;58320;48.804;9.252;2022-10-14T03:37:48;10.67;;;5.80;;
70733;SDS011;58320;48.804;9.252;2022-10-14T03:40:14;11.60;;;5.70;;
70733;SDS011;58320;48.804;9.252;2022-10-14T03:42:40;9.88;;;5.70;;
70733;SDS011;58320;48.804;9.252;2022-10-14T03:45:06;14.32;;;7.20;;
70733;SDS011;58320;48.804;9.252;2022-10-14T03:47:32;13.80;;;6.70;;
70733;SDS011;58320;48.804;9.252;2022-10-14T03:50:02;11.98;;;6.32;;
70733;SDS011;58320;48.804;9.252;2022-10-14T03:52:29;10.40;;;6.13;;
70733;SDS011;58320;48.804;9.252;2022-10-14T03:54:56;11.73;;;6.07;;
70733;SDS011;58320;48.804;9.252;2022-10-14T03:57:22;12.93;;;6.13;;
70733;SDS011;58320;48.804;9.252;2022-10-14T03:59:48;11.80;;;6.13;;
70733;SDS011;58320;48.804;9.252;2022-10-14T04:02:13;15.30;;;6.25;;
70733;SDS011;58320;48.804;9.252;2022-10-14T04:04:39;10.43;;;6.50;;
70733;SDS011;58320;48.804;9.252;2022-10-14T04:07:05;12.50;;;5.70;;
70733;SDS011;58320;48.804;9.252;2022-10-14T04:09:31;10.38;;;5.57;;
70733;SDS011;58320;48.804;9.252;2022-10-14T04:11:56;9.87;;;5.53;;
70733;SDS011;58320;48.804;9.252;2022-10-14T04:14:23;10.85;;;6.18;;
70733;SDS011;58320;48.804;9.252;2022-10-14T04:16:50;9.98;;;6.00;;
70733;SDS011;58320;48.804;9.252;2022-10-14T04:19:17;11.90;;;6.55;;
70733;SDS011;58320;48.804;9.252;2022-10-14T04:21:43;13.43;;;6.97;;
70733;SDS011;58320;48.804;9.252;2022-10-14T04:24:09;14.05;;;6.88;;
70733;SDS011;58320;48.804;9.252;2022-10-14T04:26:36;13.95;;;7.28;;
70733;SDS011;58320;48.804;9.252;2022-10-14T04:29:01;10.70;;;6.03;;
70733;SDS011;58320;48.804;9.252;2022-10-14T04:31:27;12.60;;;6.57;;
70733;SDS011;58320;48.804;9.252;2022-10-14T04:33:53;16.02;;;8.63;;
70733;SDS011;58320;48.804;9.252;2022-10-14T04:36:19;18.87;;;8.77;;
70733;SDS011;58320;48.804;9.252;2022-10-14T04:38:44;16.40;;;8.93;;
70733;SDS011;58320;48.804;9.252;2022-10-14T04:41:10;15.65;;;8.80;;
70733;SDS011;58320;48.804;9.252;2022-10-14T04:43:36;16.13;;;8.13;;
70733;SDS011;58320;48.804;9.252;2022-10-14T04:46:02;13.40;;;7.55;;
70733;SDS011;58320;48.804;9.252;2022-10-14T04:48:28;15.68;;;8.40;;
70733;SDS011;58320;48.804;9.252;2022-10-14T04:50:54;16.33;;;8.33;;
70733;SDS011;58320;48.804;9.252;2022-10-14T04:53:20;17.52;;;9.50;;
70733;SDS011;58320;48.804;9.252;2022-10-14T04:55:46;17.23;;;9.07;;
70733;SDS011;58320;48.804;9.252;2022-10-14T04:58:13;20.23;;;10.80;;
70733;SDS011;58320;48.804;9.252;2022-10-14T05:00:41;19.10;;;9.55;;
70733;SDS011;58320;48.804;9.252;2022-10-14T05:03:07;21.90;;;10.75;;
70733;SDS011;58320;48.804;9.252;2022-10-14T05:05:33;18.77;;;9.88;;
70733;SDS011;58320;48.804;9.252;2022-10-14T05:07:59;19.63;;;10.25;;
70733;SDS011;58320;48.804;9.252;2022-10-14T05:10:25;17.33;;;10.13;;
70733;SDS011;58320;48.804;9.252;2022-10-14T05:12:50;18.98;;;10.02;;
70733;SDS011;58320;48.804;9.252;2022-10-14T05:15:16;15.97;;;9.83;;
70733;SDS011;58320;48.804;9.252;2022-10-14T05:17:42;19.95;;;10.13;;
70733;SDS011;58320;48.804;9.252;2022-10-14T05:20:09;19.35;;;9.90;;
70733;SDS011;58320;48.804;9.252;2022-10-14T05:22:36;17.75;;;9.82;;
70733;SDS011;58320;48.804;9.252;2022-10-14T05:25:02;21.07;;;10.60;;
70733;SDS011;58320;48.804;9.252;2022-10-14T05:27:29;21.27;;;10.60;;
70733;SDS011;58320;48.804;9.252;2022-10-14T05:29:55;19.85;;;10.90;;
70733;SDS011;58320;48.804;9.252;2022-10-14T05:32:21;21.97;;;12.00;;
70733;SDS011;58320;48.804;9.252;2022-10-14T05:34:46;22.80;;;11.90;;
70733;SDS011;58320;48.804;9.252;2022-10-14T05:37:12;20.00;;;11.77;;
70733;SDS011;58320;48.804;9.252;2022-10-14T05:39:38;25.30;;;12.67;;
70733;SDS011;58320;48.804;9.252;2022-10-14T05:42:04;22.42;;;12.13;;
70733;SDS011;58320;48.804;9.252;2022-10-14T05:44:29;20.55;;;11.40;;
70733;SDS011;58320;48.804;9.252;2022-10-14T05:46:55;29.67;;;11.33;;
70733;SDS011;58320;48.804;9.252;2022-10-14T05:49:21;24.48;;;11.48;;
70733;SDS011;58320;48.804;9.252;2022-10-14T05:51:47;22.70;;;11.10;;
70733;SDS011;58320;48.804;9.252;2022-10-14T05:54:13;20.83;;;11.32;;
70733;SDS011;58320;48.804;9.252;2022-10-14T05:56:39;26.10;;;12.00;;
70733;SDS011;58320;48.804;9.252;2022-10-14T05:59:05;22.88;;;11.23;;
70733;SDS011;58320;48.804;9.252;2022-10-14T06:01:31;22.17;;;10.77;;
70733;SDS011;58320;48.804;9.252;2022-10-14T06:03:58;21.67;;;11.80;;
70733;SDS011;58320;48.804;9.252;2022-10-14T06:06:24;23.17;;;12.30;;
70733;SDS011;58320;48.804;9.252;2022-10-14T06:08:50;20.90;;;12.15;;
70733;SDS011;58320;48.804;9.252;2022-10-14T06:11:16;21.65;;;12.77;;
70733;SDS011;58320;48.804;9.252;2022-10-14T06:13:42;20.40;;;12.33;;
70733;SDS011;58320;48.804;9.252;2022-10-14T06:16:08;23.95;;;12.43;;
70733;SDS011;58320;48.804;9.252;2022-10-14T06:18:35;18.70;;;11.00;;
70733;SDS011;58320;48.804;9.252;2022-10-14T06:21:02;19.63;;;9.93;;
70733;SDS011;58320;48.804;9.252;2022-10-14T06:23:29;19.25;;;11.55;;
70733;SDS011;58320;48.804;9.252;2022-10-14T06:25:55;18.05;;;10.88;;
70733;SDS011;58320;48.804;9.252;2022-10-14T06:28:21;20.63;;;10.80;;
70733;SDS011;58320;48.804;9.252;2022-10-14T06:30:50;19.77;;;10.67;;
70733;SDS011;58320;48.804;9.252;2022-10-14T06:33:17;19.50;;;12.00;;
70733;SDS011;58320;48.804;9.252;2022-10-14T06:35:44;19.45;;;11.50;;
70733;SDS011;58320;48.804;9.252;2022-10-14T06:38:10;18.98;;;11.90;;
70733;SDS011;58320;48.804;9.252;2022-10-14T06:40:36;22.70;;;11.57;;
70733;SDS011;58320;48.804;9.252;2022-10-14T06:43:02;20.50;;;12.57;;
70733;SDS011;58320;48.804;9.252;2022-10-14T06:45:28;21.42;;;12.85;;
70733;SDS011;58320;48.804;9.252;2022-10-14T06:47:55;22.65;;;12.05;;
70733;SDS011;58320;48.804;9.252;2022-10-14T06:50:21;23.98;;;12.73;;
70733;SDS011;58320;48.804;9.252;2022-10-14T06:52:47;21.20;;;12.13;;
70733;SDS011;58320;48.804;9.252;2022-10-14T06:55:13;25.70;;;13.20;;
70733;SDS011;58320;48.804;9.252;2022-10-14T06:57:40;22.10;;;11.95;;
70733;SDS011;58320;48.804;9.252;2022-10-14T07:00:07;20.80;;;12.23;;
70733;SDS011;58320;48.804;9.252;2022-10-14T07:02:35;23.63;;;11.53;;
70733;SDS011;58320;48.804;9.252;2022-10-14T07:05:02;16.15;;;9.65;;
70733;SDS011;58320;48.804;9.252;2022-10-14T07:07:30;17.80;;;9.18;;
70733;SDS011;58320;48.804;9.252;2022-10-14T07:09:56;15.18;;;8.30;;
70733;SDS011;58320;48.804;9.252;2022-10-14T07:12:22;13.63;;;8.13;;
70733;SDS011;58320;48.804;9.252;2022-10-14T07:14:49;12.87;;;7.47;;
70733;SDS011;58320;48.804;9.252;2022-10-14T07:17:15;17.50;;;10.38;;
70733;SDS011;58320;48.804;9.252;2022-10-14T07:19:41;11.52;;;7.10;;
70733;SDS011;58320;48.804;9.252;2022-10-14T07:22:06;12.33;;;7.93;;
70733;SDS011;58320;48.804;9.252;2022-10-14T07:24:32;13.70;;;7.50;;
70733;SDS011;58320;48.804;9.252;2022-10-14T07:26:58;14.20;;;7.50;;
70733;SDS011;58320;48.804;9.252;2022-10-14T07:29:25;14.95;;;7.00;;
70733;SDS011;58320;48.804;9.252;2022-10-14T07:31:52;11.87;;;7.17;;
70733;SDS011;58320;48.804;9.252;2022-10-14T07:34:18;11.27;;;6.78;;
70733;SDS011;58320;48.804;9.252;2022-10-14T07:36:44;10.27;;;6.28;;
70733;SDS011;58320;48.804;9.252;2022-10-14T07:39:10;8.95;;;5.80;;
70733;SDS011;58320;48.804;9.252;2022-10-14T07:41:36;11.60;;;6.60;;
70733;SDS011;58320;48.804;9.252;2022-10-14T07:44:04;10.73;;;6.47;;
70733;SDS011;58320;48.804;9.252;2022-10-14T07:46:35;10.50;;;6.35;;
70733;SDS011;58320;48.804;9.252;2022-10-14T07:49:06;11.27;;;6.85;;
70733;SDS011;58320;48.804;9.252;2022-10-14T07:51:35;11.32;;;6.55;;
70733;SDS011;58320;48.804;9.252;2022-10-14T07:54:02;12.73;;;6.95;;
70733;SDS011;58320;48.804;9.252;2022-10-14T07:56:34;10.37;;;6.87;;
70733;SDS011;58320;48.804;9.252;2022-10-14T07:59:04;10.50;;;6.60;;
70733;SDS011;58320;48.804;9.252;2022-10-14T08:01:30;10.90;;;6.10;;
70733;SDS011;58320;48.804;9.252;2022-10-14T08:03:56;11.93;;;7.38;;
70733;SDS011;58320;48.804;9.252;2022-10-14T08:06:22;10.30;;;6.50;;
70733;SDS011;58320;48.804;9.252;2022-10-14T08:08:48;14.23;;;6.45;;
70733;SDS011;58320;48.804;9.252;2022-10-14T08:11:16;12.48;;;6.32;;
70733;SDS011;58320;48.804;9.252;2022-10-14T08:13:48;11.85;;;5.93;;
70733;SDS011;58320;48.804;9.252;2022-10-14T08:18:42;13.05;;;5.95;;
70733;SDS011;58320;48.804;9.252;2022-10-14T08:21:09;9.95;;;6.13;;
70733;SDS011;58320;48.804;9.252;2022-10-14T08:23:35;9.10;;;6.05;;
70733;SDS011;58320;48.804;9.252;2022-10-14T08:26:01;9.57;;;5.63;;
70733;SDS011;58320;48.804;9.252;2022-10-14T08:28:27;9.65;;;6.03;;
70733;SDS011;58320;48.804;9.252;2022-10-14T08:30:53;13.32;;;5.40;;
70733;SDS011;58320;48.804;9.252;2022-10-14T08:33:19;8.52;;;5.10;;
70733;SDS011;58320;48.804;9.252;2022-10-14T08:35:45;11.52;;;5.63;;
70733;SDS011;58320;48.804;9.252;2022-10-14T08:38:11;11.10;;;5.87;;
70733;SDS011;58320;48.804;9.252;2022-10-14T08:41:13;8.68;;;5.47;;
70733;SDS011;58320;48.804;9.252;2022-10-14T08:51:59;9.50;;;5.35;;
70733;SDS011;58320;48.804;9.252;2022-10-14T08:54:47;12.65;;;5.53;;
70733;SDS011;58320;48.804;9.252;2022-10-14T08:57:21;11.55;;;5.55;;
70733;SDS011;58320;48.804;9.252;2022-10-14T08:59:53;9.77;;;5.80;;
70733;SDS011;58320;48.804;9.252;2022-10-14T09:02:41;11.32;;;5.70;;
70733;SDS011;58320;48.804;9.252;2022-10-14T09:05:14;10.85;;;6.40;;
70733;SDS011;58320;48.804;9.252;2022-10-14T09:07:50;9.32;;;5.70;;
70733;SDS011;58320;48.804;9.252;2022-10-14T09:12:57;9.60;;;6.07;;
70733;SDS011;58320;48.804;9.252;2022-10-14T09:15:47;12.63;;;6.35;;
70733;SDS011;58320;48.804;9.252;2022-10-14T09:18:22;12.63;;;6.50;;
70733;SDS011;58320;48.804;9.252;2022-10-14T09:20:56;8.77;;;5.68;;
70733;SDS011;58320;48.804;9.252;2022-10-14T09:23:25;10.77;;;6.20;;
70733;SDS011;58320;48.804;9.252;2022-10-14T09:25:59;10.53;;;5.57;;
70733;SDS011;58320;48.804;9.252;2022-10-14T09:28:42;14.02;;;5.88;;
70733;SDS011;58320;48.804;9.252;2022-10-14T09:31:12;10.43;;;5.63;;
70733;SDS011;58320;48.804;9.252;2022-10-14T09:33:38;10.98;;;6.00;;
70733;SDS011;58320;48.804;9.252;2022-10-14T09:36:14;9.70;;;5.35;;
70733;SDS011;58320;48.804;9.252;2022-10-14T09:38:44;11.60;;;5.20;;
70733;SDS011;58320;48.804;9.252;2022-10-14T09:41:13;14.05;;;5.35;;
70733;SDS011;58320;48.804;9.252;2022-10-14T09:44:11;10.07;;;5.53;;
70733;SDS011;58320;48.804;9.252;2022-10-14T09:47:07;9.35;;;5.40;;
70733;SDS011;58320;48.804;9.252;2022-10-14T09:49:39;8.85;;;5.28;;
70733;SDS011;58320;48.804;9.252;2022-10-14T09:52:19;8.73;;;5.40;;
70733;SDS011;58320;48.804;9.252;2022-10-14T09:54:52;9.68;;;4.80;;
70733;SDS011;58320;48.804;9.252;2022-10-14T09:57:24;11.57;;;5.30;;
70733;SDS011;58320;48.804;9.252;2022-10-14T09:59:58;7.88;;;4.90;;
70733;SDS011;58320;48.804;9.252;2022-10-14T10:02:34;7.53;;;4.80;;
70733;SDS011;58320;48.804;9.252;2022-10-14T10:05:16;7.70;;;4.40;;
70733;SDS011;58320;48.804;9.252;2022-10-14T10:08:38;10.68;;;5.03;;
70733;SDS011;58320;48.804;9.252;2022-10-14T10:10:57;7.50;;;3.70;;
70733;SDS011;58320;48.804;9.252;2022-10-14T10:13:31;6.72;;;4.60;;
70733;SDS011;58320;48.804;9.252;2022-10-14T10:16:19;7.25;;;4.53;;
70733;SDS011;58320;48.804;9.252;2022-10-14T10:18:55;8.43;;;4.20;;
70733;SDS011;58320;48.804;9.252;2022-10-14T10:21:28;6.53;;;3.90;;
70733;SDS011;58320;48.804;9.252;2022-10-14T10:23:59;7.60;;;4.20;;
70733;SDS011;58320;48.804;9.252;2022-10-14T10:26:31;7.35;;;4.55;;
70733;SDS011;58320;48.804;9.252;2022-10-14T10:28:59;6.95;;;4.18;;
70733;SDS011;58320;48.804;9.252;2022-10-14T10:45:40;7.43;;;4.33;;
70733;SDS011;58320;48.804;9.252;2022-10-14T10:51:08;7.63;;;4.18;;
70733;SDS011;58320;48.804;9.252;2022-10-14T11:04:15;9.25;;;4.55;;
70733;SDS011;58320;48.804;9.252;2022-10-14T11:12:57;7.78;;;4.72;;
70733;SDS011;58320;48.804;9.252;2022-10-14T11:30:16;8.50;;;5.50;;
70733;SDS011;58320;48.804;9.252;2022-10-14T11:36:00;12.48;;;5.55;;
70733;SDS011;58320;48.804;9.252;2022-10-14T11:44:36;8.70;;;4.57;;
70733;SDS011;58320;48.804;9.252;2022-10-14T11:47:10;8.88;;;4.80;;
70733;SDS011;58320;48.804;9.252;2022-10-14T11:49:56;8.27;;;4.93;;
70733;SDS011;58320;48.804;9.252;2022-10-14T11:52:25;11.07;;;4.63;;
70733;SDS011;58320;48.804;9.252;2022-10-14T11:55:29;8.25;;;4.60;;
70733;SDS011;58320;48.804;9.252;2022-10-14T11:57:50;6.43;;;3.97;;
70733;SDS011;58320;48.804;9.252;2022-10-14T12:00:21;8.85;;;4.13;;
70733;SDS011;58320;48.804;9.252;2022-10-14T12:02:53;7.38;;;3.60;;
70733;SDS011;58320;48.804;9.252;2022-10-14T12:06:18;8.10;;;3.15;;
70733;SDS011;58320;48.804;9.252;2022-10-14T12:08:56;6.57;;;3.35;;
70733;SDS011;58320;48.804;9.252;2022-10-14T12:11:34;5.27;;;2.90;;
70733;SDS011;58320;48.804;9.252;2022-10-14T12:14:13;6.18;;;3.10;;
70733;SDS011;58320;48.804;9.252;2022-10-14T12:16:53;5.82;;;2.63;;
70733;SDS011;58320;48.804;9.252;2022-10-14T12:19:26;5.15;;;3.03;;
70733;SDS011;58320;48.804;9.252;2022-10-14T12:22:13;7.07;;;3.33;;
70733;SDS011;58320;48.804;9.252;2022-10-14T12:24:52;6.83;;;3.10;;
70733;SDS011;58320;48.804;9.252;2022-10-14T12:27:28;6.43;;;3.00;;
70733;SDS011;58320;48.804;9.252;2022-10-14T12:29:55;7.00;;;3.13;;
70733;SDS011;58320;48.804;9.252;2022-10-14T12:34:52;6.32;;;2.67;;
70733;SDS011;58320;48.804;9.252;2022-10-14T12:40:15;5.90;;;2.85;;
70733;SDS011;58320;48.804;9.252;2022-10-14T12:42:51;5.57;;;2.67;;
70733;SDS011;58320;48.804;9.252;2022-10-14T12:45:37;4.22;;;2.28;;
70733;SDS011;58320;48.804;9.252;2022-10-14T12:48:21;7.97;;;2.65;;
70733;SDS011;58320;48.804;9.252;2022-10-14T12:50:51;4.77;;;2.10;;
70733;SDS011;58320;48.804;9.252;2022-10-14T12:53:31;7.05;;;2.67;;
70733;SDS011;58320;48.804;9.252;2022-10-14T12:55:59;4.38;;;2.20;;
70733;SDS011;58320;48.804;9.252;2022-10-14T13:01:13;4.20;;;1.90;;
70733;SDS011;58320;48.804;9.252;2022-10-14T13:03:55;5.53;;;2.40;;
70733;SDS011;58320;48.804;9.252;2022-10-14T13:11:35;5.13;;;2.65;;
70733;SDS011;58320;48.804;9.252;2022-10-14T13:14:23;4.88;;;2.20;;
70733;SDS011;58320;48.804;9.252;2022-10-14T13:21:56;4.50;;;2.15;;
70733;SDS011;58320;48.804;9.252;2022-10-14T13:24:26;4.68;;;1.73;;
70733;SDS011;58320;48.804;9.252;2022-10-14T13:29:25;4.40;;;2.00;;
70733;SDS011;58320;48.804;9.252;2022-10-14T13:38:11;3.35;;;1.80;;
70733;SDS011;58320;48.804;9.252;2022-10-14T13:40:44;4.70;;;1.90;;
70733;SDS011;58320;48.804;9.252;2022-10-14T13:48:44;4.68;;;1.90;;
70733;SDS011;58320;48.804;9.252;2022-10-14T13:53:51;5.63;;;1.90;;
70733;SDS011;58320;48.804;9.252;2022-10-14T13:56:25;5.45;;;1.42;;
70733;SDS011;58320;48.804;9.252;2022-10-14T13:58:52;3.72;;;1.50;;
70733;SDS011;58320;48.804;9.252;2022-10-14T14:01:19;4.03;;;1.60;;
70733;SDS011;58320;48.804;9.252;2022-10-14T14:03:52;5.97;;;1.80;;
70733;SDS011;58320;48.804;9.252;2022-10-14T14:06:22;5.88;;;1.60;;
70733;SDS011;58320;48.804;9.252;2022-10-14T14:09:01;3.88;;;1.90;;
70733;SDS011;58320;48.804;9.252;2022-10-14T14:11:36;5.65;;;1.90;;
70733;SDS011;58320;48.804;9.252;2022-10-14T14:16:52;3.87;;;1.30;;
70733;SDS011;58320;48.804;9.252;2022-10-14T14:19:29;3.30;;;1.55;;
70733;SDS011;58320;48.804;9.252;2022-10-14T14:22:14;3.80;;;1.52;;
70733;SDS011;58320;48.804;9.252;2022-10-14T14:24:45;5.13;;;1.77;;
70733;SDS011;58320;48.804;9.252;2022-10-14T14:27:13;3.70;;;1.77;;
70733;SDS011;58320;48.804;9.252;2022-10-14T14:29:45;4.27;;;1.73;;
70733;SDS011;58320;48.804;9.252;2022-10-14T14:32:21;4.10;;;2.00;;
70733;SDS011;58320;48.804;9.252;2022-10-14T14:34:54;3.42;;;1.70;;
70733;SDS011;58320;48.804;9.252;2022-10-14T14:42:24;3.60;;;1.60;;
70733;SDS011;58320;48.804;9.252;2022-10-14T14:44:56;4.63;;;2.00;;
70733;SDS011;58320;48.804;9.252;2022-10-14T14:47:27;6.00;;;1.92;;
70733;SDS011;58320;48.804;9.252;2022-10-14T14:49:55;4.50;;;2.17;;
70733;SDS011;58320;48.804;9.252;2022-10-14T14:52:22;5.53;;;2.05;;
70733;SDS011;58320;48.804;9.252;2022-10-14T14:54:51;3.87;;;2.03;;
70733;SDS011;58320;48.804;9.252;2022-10-14T14:57:18;5.05;;;2.47;;
70733;SDS011;58320;48.804;9.252;2022-10-14T15:02:30;7.18;;;3.50;;
70733;SDS011;58320;48.804;9.252;2022-10-14T15:05:05;8.50;;;3.67;;
70733;SDS011;58320;48.804;9.252;2022-10-14T15:07:33;6.57;;;2.97;;
70733;SDS011;58320;48.804;9.252;2022-10-14T15:10:04;6.10;;;3.13;;
70733;SDS011;58320;48.804;9.252;2022-10-14T15:12:36;5.22;;;2.92;;
70733;SDS011;58320;48.804;9.252;2022-10-14T15:15:21;6.57;;;3.20;;
70733;SDS011;58320;48.804;9.252;2022-10-14T15:20:49;4.43;;;2.80;;
70733;SDS011;58320;48.804;9.252;2022-10-14T15:26:33;8.02;;;3.15;;
70733;SDS011;58320;48.804;9.252;2022-10-14T15:31:45;4.40;;;2.40;;
70733;SDS011;58320;48.804;9.252;2022-10-14T15:34:38;4.38;;;2.33;;
70733;SDS011;58320;48.804;9.252;2022-10-14T15:37:04;5.60;;;2.50;;
70733;SDS011;58320;48.804;9.252;2022-10-14T15:39:30;5.15;;;2.38;;
70733;SDS011;58320;48.804;9.252;2022-10-14T15:41:56;3.90;;;1.93;;
70733;SDS011;58320;48.804;9.252;2022-10-14T15:44:22;4.13;;;1.90;;
70733;SDS011;58320;48.804;9.252;2022-10-14T15:46:47;4.15;;;1.90;;
70733;SDS011;58320;48.804;9.252;2022-10-14T15:49:35;3.47;;;1.80;;
70733;SDS011;58320;48.804;9.252;2022-10-14T15:52:05;3.30;;;1.70;;
70733;SDS011;58320;48.804;9.252;2022-10-14T15:54:31;4.60;;;1.75;;
70733;SDS011;58320;48.804;9.252;2022-10-14T15:56:57;3.53;;;2.00;;
70733;SDS011;58320;48.804;9.252;2022-10-14T15:59:24;5.38;;;2.50;;
70733;SDS011;58320;48.804;9.252;2022-10-14T16:01:50;4.80;;;1.90;;
70733;SDS011;58320;48.804;9.252;2022-10-14T16:04:17;4.55;;;1.77;;
70733;SDS011;58320;48.804;9.252;2022-10-14T16:06:48;4.00;;;2.10;;
70733;SDS011;58320;48.804;9.252;2022-10-14T16:09:22;5.32;;;1.98;;
70733;SDS011;58320;48.804;9.252;2022-10-14T16:11:51;11.30;;;4.32;;
70733;SDS011;58320;48.804;9.252;2022-10-14T16:14:24;6.13;;;2.63;;
70733;SDS011;58320;48.804;9.252;2022-10-14T16:16:51;5.68;;;2.55;;
70733;SDS011;58320;48.804;9.252;2022-10-14T16:19:17;4.43;;;2.05;;
70733;SDS011;58320;48.804;9.252;2022-10-14T16:21:43;4.18;;;1.90;;
70733;SDS011;58320;48.804;9.252;2022-10-14T16:24:13;4.57;;;1.90;;
70733;SDS011;58320;48.804;9.252;2022-10-14T16:26:42;4.18;;;1.92;;
70733;SDS011;58320;48.804;9.252;2022-10-14T16:29:09;4.53;;;2.10;;
70733;SDS011;58320;48.804;9.252;2022-10-14T16:31:34;8.20;;;2.40;;
70733;SDS011;58320;48.804;9.252;2022-10-14T16:34:00;6.32;;;2.10;;
70733;SDS011;58320;48.804;9.252;2022-10-14T16:36:27;3.63;;;2.33;;
70733;SDS011;58320;48.804;9.252;2022-10-14T16:38:54;4.57;;;2.00;;
70733;SDS011;58320;48.804;9.252;2022-10-14T16:41:20;3.60;;;1.88;;
70733;SDS011;58320;48.804;9.252;2022-10-14T16:43:46;3.13;;;1.50;;
70733;SDS011;58320;48.804;9.252;2022-10-14T16:46:12;3.63;;;1.80;;
70733;SDS011;58320;48.804;9.252;2022-10-14T16:48:38;4.97;;;1.70;;
70733;SDS011;58320;48.804;9.252;2022-10-14T16:51:04;4.00;;;1.85;;
70733;SDS011;58320;48.804;9.252;2022-10-14T16:53:30;3.70;;;1.63;;
70733;SDS011;58320;48.804;9.252;2022-10-14T16:56:27;3.40;;;1.75;;
70733;SDS011;58320;48.804;9.252;2022-10-14T16:59:10;3.40;;;1.77;;
70733;SDS011;58320;48.804;9.252;2022-10-14T17:01:37;4.15;;;1.67;;
70733;SDS011;58320;48.804;9.252;2022-10-14T17:04:04;4.18;;;2.05;;
70733;SDS011;58320;48.804;9.252;2022-10-14T17:06:30;4.78;;;2.15;;
70733;SDS011;58320;48.804;9.252;2022-10-14T17:08:56;2.85;;;1.50;;
70733;SDS011;58320;48.804;9.252;2022-10-14T17:11:22;4.37;;;1.73;;
70733;SDS011;58320;48.804;9.252;2022-10-14T17:13:51;4.25;;;2.00;;
70733;SDS011;58320;48.804;9.252;2022-10-14T17:16:18;5.85;;;2.25;;
70733;SDS011;58320;48.804;9.252;2022-10-14T17:18:44;5.60;;;2.38;;
70733;SDS011;58320;48.804;9.252;2022-10-14T17:21:10;4.10;;;1.90;;
70733;SDS011;58320;48.804;9.252;2022-10-14T17:23:38;3.90;;;1.70;;
70733;SDS011;58320;48.804;9.252;2022-10-14T17:26:06;5.57;;;2.17;;
70733;SDS011;58320;48.804;9.252;2022-10-14T17:28:39;4.78;;;2.25;;
70733;SDS011;58320;48.804;9.252;2022-10-14T17:31:09;4.50;;;2.20;;
70733;SDS011;58320;48.804;9.252;2022-10-14T17:33:38;3.88;;;1.80;;
70733;SDS011;58320;48.804;9.252;2022-10-14T17:36:05;4.30;;;2.33;;
70733;SDS011;58320;48.804;9.252;2022-10-14T17:38:33;4.32;;;2.13;;
70733;SDS011;58320;48.804;9.252;2022-10-14T17:41:06;5.15;;;2.70;;